sensor_id;sensor_type;location;lat;lon;timestamp;pressure;altitude;pressure_sealevel;temperature;humidity
16793;BME280;8513;42.662;23.350;2023-01-05T00:02:21;95732.53;;;8.16;66.69
16793;BME280;8513;42.662;23.350;2023-01-05T00:04:46;95738.59;;;8.28;66.15
16793;BME280;8513;42.662;23.350;2023-01-05T00:07:12;95734.91;;;8.42;65.45
16793;BME280;8513;42.662;23.350;2023-01-05T00:09:37;95743.84;;;8.39;65.66
16793;BME280;8513;42.662;23.350;2023-01-05T00:12:04;95737.16;;;8.12;66.35
16793;BME280;8513;42.662;23.350;2023-01-05T00:14:48;95736.34;;;8.01;66.94
16793;BME280;8513;42.662;23.350;2023-01-05T00:17:32;95735.16;;;8.27;66.05
16793;BME280;8513;42.662;23.350;2023-01-05T00:20:19;95735.28;;;8.37;66.02
16793;BME280;8513;42.662;23.350;2023-01-05T00:23:03;95727.31;;;8.16;66.65
16793;BME280;8513;42.662;23.350;2023-01-05T00:25:36;95720.63;;;8.01;67.03
16793;BME280;8513;42.662;23.350;2023-01-05T00:28:02;95722.41;;;8.00;67.30
16793;BME280;8513;42.662;23.350;2023-01-05T00:30:30;95718.25;;;7.98;67.30
16793;BME280;8513;42.662;23.350;2023-01-05T00:32:56;95719.91;;;7.99;67.21
16793;BME280;8513;42.662;23.350;2023-01-05T00:35:22;95717.53;;;7.95;67.34
16793;BME280;8513;42.662;23.350;2023-01-05T00:37:48;95721.81;;;8.19;66.56
16793;BME280;8513;42.662;23.350;2023-01-05T00:40:16;95714.91;;;8.29;65.96
16793;BME280;8513;42.662;23.350;2023-01-05T00:42:42;95702.97;;;8.36;65.53
16793;BME280;8513;42.662;23.350;2023-01-05T00:45:10;95716.94;;;8.37;65.66
16793;BME280;8513;42.662;23.350;2023-01-05T00:47:36;95705.16;;;8.31;65.61
16793;BME280;8513;42.662;23.350;2023-01-05T00:50:03;95704.19;;;8.32;65.58
16793;BME280;8513;42.662;23.350;2023-01-05T00:52:28;95707.03;;;8.29;65.61
16793;BME280;8513;42.662;23.350;2023-01-05T00:54:54;95712.06;;;8.44;65.35
16793;BME280;8513;42.662;23.350;2023-01-05T00:57:19;95710.81;;;8.36;65.06
16793;BME280;8513;42.662;23.350;2023-01-05T00:59:44;95715.88;;;8.39;65.00
16793;BME280;8513;42.662;23.350;2023-01-05T01:02:10;95714.66;;;8.44;64.76
16793;BME280;8513;42.662;23.350;2023-01-05T01:04:35;95710.25;;;8.33;65.30
16793;BME280;8513;42.662;23.350;2023-01-05T01:07:02;95715.75;;;8.41;65.27
16793;BME280;8513;42.662;23.350;2023-01-05T01:09:28;95706.78;;;8.32;64.86
16793;BME280;8513;42.662;23.350;2023-01-05T01:11:54;95709.06;;;8.37;65.12
16793;BME280;8513;42.662;23.350;2023-01-05T01:14:19;95715.38;;;8.34;65.19
16793;BME280;8513;42.662;23.350;2023-01-05T01:16:45;95701.31;;;8.35;65.12
16793;BME280;8513;42.662;23.350;2023-01-05T01:19:16;95706.78;;;8.32;65.23
16793;BME280;8513;42.662;23.350;2023-01-05T01:21:44;95707.16;;;8.39;65.10
16793;BME280;8513;42.662;23.350;2023-01-05T01:24:19;95704.19;;;8.32;65.31
16793;BME280;8513;42.662;23.350;2023-01-05T01:26:45;95699.41;;;8.15;65.79
16793;BME280;8513;42.662;23.350;2023-01-05T01:29:10;95697.16;;;8.33;65.27
16793;BME280;8513;42.662;23.350;2023-01-05T01:31:36;95690.38;;;8.42;65.08
16793;BME280;8513;42.662;23.350;2023-01-05T01:34:02;95679.38;;;8.36;65.13
16793;BME280;8513;42.662;23.350;2023-01-05T01:36:28;95678.22;;;8.41;64.71
16793;BME280;8513;42.662;23.350;2023-01-05T01:38:53;95678.94;;;8.43;64.69
16793;BME280;8513;42.662;23.350;2023-01-05T01:41:19;95678.69;;;8.46;64.53
16793;BME280;8513;42.662;23.350;2023-01-05T01:43:48;95666.88;;;8.51;64.48
16793;BME280;8513;42.662;23.350;2023-01-05T01:46:15;95657.97;;;8.43;64.60
16793;BME280;8513;42.662;23.350;2023-01-05T01:48:46;95651.19;;;8.40;64.55
16793;BME280;8513;42.662;23.350;2023-01-05T01:51:16;95649.38;;;8.52;64.02
16793;BME280;8513;42.662;23.350;2023-01-05T01:53:45;95650.09;;;8.54;64.20
16793;BME280;8513;42.662;23.350;2023-01-05T01:56:15;95647.47;;;8.54;63.81
16793;BME280;8513;42.662;23.350;2023-01-05T01:58:42;95643.03;;;8.54;64.34
16793;BME280;8513;42.662;23.350;2023-01-05T02:01:08;95640.69;;;8.51;64.22
16793;BME280;8513;42.662;23.350;2023-01-05T02:03:35;95639.72;;;8.52;64.16
16793;BME280;8513;42.662;23.350;2023-01-05T02:06:01;95629.13;;;8.54;63.91
16793;BME280;8513;42.662;23.350;2023-01-05T02:08:27;95629.22;;;8.52;64.17
16793;BME280;8513;42.662;23.350;2023-01-05T02:17:18;95616.31;;;8.39;64.44
16793;BME280;8513;42.662;23.350;2023-01-05T02:23:14;95609.38;;;8.27;64.91
16793;BME280;8513;42.662;23.350;2023-01-05T02:26:16;95609.59;;;8.35;64.68
16793;BME280;8513;42.662;23.350;2023-01-05T02:31:38;95600.91;;;8.35;64.66
16793;BME280;8513;42.662;23.350;2023-01-05T02:42:35;95607.94;;;8.46;64.55
16793;BME280;8513;42.662;23.350;2023-01-05T02:45:03;95610.41;;;8.47;64.26
16793;BME280;8513;42.662;23.350;2023-01-05T02:47:38;95604.47;;;8.34;65.18
16793;BME280;8513;42.662;23.350;2023-01-05T02:50:18;95602.50;;;8.15;65.95
16793;BME280;8513;42.662;23.350;2023-01-05T02:52:59;95606.25;;;7.79;67.31
16793;BME280;8513;42.662;23.350;2023-01-05T02:55:34;95597.09;;;7.84;67.41
16793;BME280;8513;42.662;23.350;2023-01-05T02:58:07;95596.84;;;7.87;67.46
16793;BME280;8513;42.662;23.350;2023-01-05T03:00:39;95588.03;;;8.00;66.85
16793;BME280;8513;42.662;23.350;2023-01-05T03:03:20;95577.75;;;8.08;66.70
16793;BME280;8513;42.662;23.350;2023-01-05T03:08:48;95575.63;;;8.13;66.68
16793;BME280;8513;42.662;23.350;2023-01-05T03:11:14;95571.28;;;8.23;65.94
16793;BME280;8513;42.662;23.350;2023-01-05T03:14:05;95568.06;;;8.20;66.12
16793;BME280;8513;42.662;23.350;2023-01-05T03:16:37;95561.03;;;8.20;66.06
16793;BME280;8513;42.662;23.350;2023-01-05T03:19:06;95563.94;;;8.06;66.93
16793;BME280;8513;42.662;23.350;2023-01-05T03:21:54;95557.75;;;8.18;66.40
16793;BME280;8513;42.662;23.350;2023-01-05T03:24:39;95550.97;;;8.15;66.33
16793;BME280;8513;42.662;23.350;2023-01-05T03:27:25;95534.59;;;8.23;65.99
16793;BME280;8513;42.662;23.350;2023-01-05T03:30:10;95522.56;;;8.32;65.79
16793;BME280;8513;42.662;23.350;2023-01-05T03:33:09;95522.22;;;8.25;65.90
16793;BME280;8513;42.662;23.350;2023-01-05T03:35:57;95535.56;;;8.22;66.29
16793;BME280;8513;42.662;23.350;2023-01-05T03:40:51;95535.47;;;8.12;66.59
16793;BME280;8513;42.662;23.350;2023-01-05T03:43:18;95522.59;;;8.21;66.36
16793;BME280;8513;42.662;23.350;2023-01-05T03:45:50;95527.44;;;8.25;66.02
16793;BME280;8513;42.662;23.350;2023-01-05T03:48:16;95527.44;;;8.25;66.09
16793;BME280;8513;42.662;23.350;2023-01-05T03:50:42;95529.88;;;8.17;66.42
16793;BME280;8513;42.662;23.350;2023-01-05T03:53:07;95525.53;;;8.27;66.03
16793;BME280;8513;42.662;23.350;2023-01-05T03:55:33;95530.53;;;8.30;65.70
16793;BME280;8513;42.662;23.350;2023-01-05T03:57:58;95526.00;;;8.32;65.69
16793;BME280;8513;42.662;23.350;2023-01-05T04:00:24;95529.59;;;8.31;65.63
16793;BME280;8513;42.662;23.350;2023-01-05T04:02:50;95519.47;;;8.27;65.55
16793;BME280;8513;42.662;23.350;2023-01-05T04:05:16;95518.41;;;8.29;65.29
16793;BME280;8513;42.662;23.350;2023-01-05T04:07:41;95525.81;;;8.24;65.49
16793;BME280;8513;42.662;23.350;2023-01-05T04:10:07;95517.59;;;8.17;65.86
16793;BME280;8513;42.662;23.350;2023-01-05T04:12:32;95515.22;;;8.14;65.85
16793;BME280;8513;42.662;23.350;2023-01-05T04:14:58;95517.72;;;8.16;66.09
16793;BME280;8513;42.662;23.350;2023-01-05T04:17:23;95511.41;;;8.18;65.67
16793;BME280;8513;42.662;23.350;2023-01-05T04:19:49;95507.13;;;8.17;65.81
16793;BME280;8513;42.662;23.350;2023-01-05T04:22:14;95510.06;;;8.24;65.48
16793;BME280;8513;42.662;23.350;2023-01-05T04:24:40;95503.91;;;8.14;65.89
16793;BME280;8513;42.662;23.350;2023-01-05T04:27:05;95506.19;;;8.18;65.91
16793;BME280;8513;42.662;23.350;2023-01-05T04:29:30;95497.03;;;8.13;65.80
16793;BME280;8513;42.662;23.350;2023-01-05T04:31:56;95499.50;;;8.14;65.92
16793;BME280;8513;42.662;23.350;2023-01-05T04:34:21;95495.59;;;8.09;65.80
16793;BME280;8513;42.662;23.350;2023-01-05T04:36:47;95503.03;;;7.92;66.16
16793;BME280;8513;42.662;23.350;2023-01-05T04:39:13;95504.22;;;7.88;66.46
16793;BME280;8513;42.662;23.350;2023-01-05T04:41:39;95506.16;;;7.86;66.54
16793;BME280;8513;42.662;23.350;2023-01-05T04:44:05;95509.47;;;7.88;66.19
16793;BME280;8513;42.662;23.350;2023-01-05T04:46:30;95506.41;;;7.83;66.44
16793;BME280;8513;42.662;23.350;2023-01-05T04:48:56;95502.38;;;7.79;66.36
16793;BME280;8513;42.662;23.350;2023-01-05T04:51:22;95506.63;;;7.80;66.36
16793;BME280;8513;42.662;23.350;2023-01-05T04:53:47;95511.19;;;7.78;66.44
16793;BME280;8513;42.662;23.350;2023-01-05T04:56:13;95510.72;;;7.73;66.41
16793;BME280;8513;42.662;23.350;2023-01-05T04:58:38;95523.41;;;7.78;66.42
16793;BME280;8513;42.662;23.350;2023-01-05T05:01:04;95524.28;;;7.78;66.19
16793;BME280;8513;42.662;23.350;2023-01-05T05:03:29;95515.69;;;7.76;66.43
16793;BME280;8513;42.662;23.350;2023-01-05T05:05:54;95526.41;;;7.73;66.62
16793;BME280;8513;42.662;23.350;2023-01-05T05:08:20;95527.34;;;7.83;66.45
16793;BME280;8513;42.662;23.350;2023-01-05T05:10:45;95528.31;;;7.71;66.40
16793;BME280;8513;42.662;23.350;2023-01-05T05:13:11;95525.44;;;7.74;66.82
16793;BME280;8513;42.662;23.350;2023-01-05T05:15:36;95520.34;;;7.72;66.92
16793;BME280;8513;42.662;23.350;2023-01-05T05:18:02;95529.00;;;7.84;66.46
16793;BME280;8513;42.662;23.350;2023-01-05T05:20:27;95539.50;;;7.73;66.91
16793;BME280;8513;42.662;23.350;2023-01-05T05:22:52;95534.28;;;7.73;67.05
16793;BME280;8513;42.662;23.350;2023-01-05T05:25:18;95536.75;;;7.74;67.13
16793;BME280;8513;42.662;23.350;2023-01-05T05:27:43;95532.34;;;7.75;67.20
16793;BME280;8513;42.662;23.350;2023-01-05T05:30:09;95527.09;;;7.75;67.00
16793;BME280;8513;42.662;23.350;2023-01-05T05:32:35;95533.31;;;7.74;67.08
16793;BME280;8513;42.662;23.350;2023-01-05T05:35:00;95532.47;;;7.73;67.00
16793;BME280;8513;42.662;23.350;2023-01-05T05:37:25;95523.09;;;7.71;66.62
16793;BME280;8513;42.662;23.350;2023-01-05T05:39:51;95522.72;;;7.64;66.95
16793;BME280;8513;42.662;23.350;2023-01-05T05:42:16;95506.69;;;7.58;66.97
16793;BME280;8513;42.662;23.350;2023-01-05T05:44:42;95509.19;;;7.59;67.35
16793;BME280;8513;42.662;23.350;2023-01-05T05:47:07;95509.19;;;7.59;67.18
16793;BME280;8513;42.662;23.350;2023-01-05T05:49:33;95495.28;;;7.47;67.29
16793;BME280;8513;42.662;23.350;2023-01-05T05:51:58;95488.63;;;7.43;67.24
16793;BME280;8513;42.662;23.350;2023-01-05T05:54:27;95487.56;;;7.46;67.20
16793;BME280;8513;42.662;23.350;2023-01-05T05:56:52;95486.84;;;7.44;66.70
16793;BME280;8513;42.662;23.350;2023-01-05T05:59:18;95492.09;;;7.33;67.60
16793;BME280;8513;42.662;23.350;2023-01-05T06:01:43;95488.28;;;7.25;67.77
16793;BME280;8513;42.662;23.350;2023-01-05T06:04:08;95485.69;;;7.25;68.07
16793;BME280;8513;42.662;23.350;2023-01-05T06:06:35;95486.84;;;7.21;68.42
16793;BME280;8513;42.662;23.350;2023-01-05T06:09:01;95474.16;;;7.17;68.89
16793;BME280;8513;42.662;23.350;2023-01-05T06:11:26;95482.91;;;7.27;68.18
16793;BME280;8513;42.662;23.350;2023-01-05T06:13:51;95471.06;;;7.23;68.24
16793;BME280;8513;42.662;23.350;2023-01-05T06:16:17;95473.31;;;7.27;68.33
16793;BME280;8513;42.662;23.350;2023-01-05T06:18:42;95472.00;;;7.22;67.96
16793;BME280;8513;42.662;23.350;2023-01-05T06:21:08;95471.78;;;7.25;68.31
16793;BME280;8513;42.662;23.350;2023-01-05T06:23:33;95473.69;;;7.12;68.59
16793;BME280;8513;42.662;23.350;2023-01-05T06:25:59;95471.41;;;7.07;68.87
16793;BME280;8513;42.662;23.350;2023-01-05T06:28:24;95464.75;;;7.14;68.49
16793;BME280;8513;42.662;23.350;2023-01-05T06:30:49;95468.31;;;7.24;68.22
16793;BME280;8513;42.662;23.350;2023-01-05T06:33:15;95462.47;;;7.32;67.57
16793;BME280;8513;42.662;23.350;2023-01-05T06:35:40;95454.50;;;7.34;67.51
16793;BME280;8513;42.662;23.350;2023-01-05T06:38:06;95457.00;;;7.24;67.76
16793;BME280;8513;42.662;23.350;2023-01-05T06:40:31;95457.94;;;7.34;67.66
16793;BME280;8513;42.662;23.350;2023-01-05T06:42:57;95469.63;;;7.19;67.64
16793;BME280;8513;42.662;23.350;2023-01-05T06:45:22;95457.63;;;7.27;67.47
16793;BME280;8513;42.662;23.350;2023-01-05T06:47:47;95456.06;;;7.36;67.15
16793;BME280;8513;42.662;23.350;2023-01-05T06:50:13;95452.72;;;7.34;66.58
16793;BME280;8513;42.662;23.350;2023-01-05T06:52:38;95460.72;;;7.33;67.20
16793;BME280;8513;42.662;23.350;2023-01-05T06:55:11;95466.31;;;7.17;67.73
16793;BME280;8513;42.662;23.350;2023-01-05T06:57:36;95457.72;;;7.37;66.92
16793;BME280;8513;42.662;23.350;2023-01-05T07:00:07;95464.88;;;7.13;67.62
16793;BME280;8513;42.662;23.350;2023-01-05T07:02:33;95464.28;;;7.09;67.72
16793;BME280;8513;42.662;23.350;2023-01-05T07:04:59;95461.78;;;7.30;66.84
16793;BME280;8513;42.662;23.350;2023-01-05T07:07:24;95456.78;;;7.16;67.87
16793;BME280;8513;42.662;23.350;2023-01-05T07:09:50;95458.94;;;7.22;68.34
16793;BME280;8513;42.662;23.350;2023-01-05T07:12:16;95462.25;;;7.35;67.46
16793;BME280;8513;42.662;23.350;2023-01-05T07:14:42;95459.59;;;7.46;67.48
16793;BME280;8513;42.662;23.350;2023-01-05T07:17:07;95462.97;;;7.26;68.33
16793;BME280;8513;42.662;23.350;2023-01-05T07:19:32;95456.97;;;7.58;67.58
16793;BME280;8513;42.662;23.350;2023-01-05T07:21:58;95458.59;;;7.70;66.75
16793;BME280;8513;42.662;23.350;2023-01-05T07:24:24;95453.34;;;7.81;66.92
16793;BME280;8513;42.662;23.350;2023-01-05T07:26:49;95444.88;;;7.89;66.29
16793;BME280;8513;42.662;23.350;2023-01-05T07:29:15;95445.75;;;7.67;66.63
16793;BME280;8513;42.662;23.350;2023-01-05T07:31:41;95448.81;;;7.83;66.69
16793;BME280;8513;42.662;23.350;2023-01-05T07:34:08;95453.03;;;7.95;66.34
16793;BME280;8513;42.662;23.350;2023-01-05T07:36:34;95438.84;;;7.66;67.38
16793;BME280;8513;42.662;23.350;2023-01-05T07:38:59;95437.56;;;7.92;66.81
16793;BME280;8513;42.662;23.350;2023-01-05T07:41:25;95430.56;;;8.14;66.04
16793;BME280;8513;42.662;23.350;2023-01-05T07:43:50;95424.06;;;8.29;65.44
16793;BME280;8513;42.662;23.350;2023-01-05T07:46:15;95427.81;;;8.36;65.55
16793;BME280;8513;42.662;23.350;2023-01-05T07:48:41;95421.97;;;8.44;65.59
16793;BME280;8513;42.662;23.350;2023-01-05T07:51:08;95432.19;;;8.47;65.27
16793;BME280;8513;42.662;23.350;2023-01-05T07:53:35;95424.75;;;8.43;64.94
16793;BME280;8513;42.662;23.350;2023-01-05T07:56:03;95423.19;;;8.61;64.65
16793;BME280;8513;42.662;23.350;2023-01-05T07:58:29;95415.34;;;8.61;64.58
16793;BME280;8513;42.662;23.350;2023-01-05T08:00:55;95422.59;;;8.57;64.96
16793;BME280;8513;42.662;23.350;2023-01-05T08:03:23;95424.06;;;8.71;64.46
16793;BME280;8513;42.662;23.350;2023-01-05T08:05:48;95413.72;;;8.70;64.54
16793;BME280;8513;42.662;23.350;2023-01-05T08:08:14;95427.97;;;8.77;64.13
16793;BME280;8513;42.662;23.350;2023-01-05T08:10:41;95412.44;;;8.64;64.57
16793;BME280;8513;42.662;23.350;2023-01-05T08:13:08;95417.34;;;8.78;64.41
16793;BME280;8513;42.662;23.350;2023-01-05T08:15:53;95407.38;;;8.72;63.83
16793;BME280;8513;42.662;23.350;2023-01-05T08:18:20;95406.31;;;8.84;63.76
16793;BME280;8513;42.662;23.350;2023-01-05T08:21:03;95407.63;;;8.90;63.66
16793;BME280;8513;42.662;23.350;2023-01-05T08:23:31;95400.56;;;8.91;63.74
16793;BME280;8513;42.662;23.350;2023-01-05T08:26:01;95408.34;;;9.02;63.44
16793;BME280;8513;42.662;23.350;2023-01-05T08:28:27;95414.28;;;9.04;63.05
16793;BME280;8513;42.662;23.350;2023-01-05T08:30:52;95413.63;;;8.81;63.50
16793;BME280;8513;42.662;23.350;2023-01-05T08:33:18;95412.47;;;8.74;64.00
16793;BME280;8513;42.662;23.350;2023-01-05T08:35:44;95407.16;;;8.54;63.96
16793;BME280;8513;42.662;23.350;2023-01-05T08:38:09;95414.09;;;8.65;63.90
16793;BME280;8513;42.662;23.350;2023-01-05T08:40:38;95419.44;;;8.84;63.24
16793;BME280;8513;42.662;23.350;2023-01-05T08:43:05;95404.50;;;8.75;62.62
16793;BME280;8513;42.662;23.350;2023-01-05T08:45:31;95404.13;;;8.80;62.62
16793;BME280;8513;42.662;23.350;2023-01-05T08:47:57;95398.66;;;8.93;62.19
16793;BME280;8513;42.662;23.350;2023-01-05T08:50:23;95396.34;;;9.09;61.40
16793;BME280;8513;42.662;23.350;2023-01-05T08:52:48;95391.22;;;9.08;61.50
16793;BME280;8513;42.662;23.350;2023-01-05T08:55:13;95396.09;;;9.12;61.37
16793;BME280;8513;42.662;23.350;2023-01-05T08:57:39;95382.81;;;9.14;61.59
16793;BME280;8513;42.662;23.350;2023-01-05T09:00:05;95386.28;;;9.14;61.00
16793;BME280;8513;42.662;23.350;2023-01-05T09:02:31;95384.66;;;9.23;61.11
16793;BME280;8513;42.662;23.350;2023-01-05T09:04:56;95379.53;;;9.21;61.04
16793;BME280;8513;42.662;23.350;2023-01-05T09:07:21;95371.50;;;9.13;61.13
16793;BME280;8513;42.662;23.350;2023-01-05T09:09:47;95369.56;;;9.15;61.00
16793;BME280;8513;42.662;23.350;2023-01-05T09:12:13;95356.88;;;9.30;60.81
16793;BME280;8513;42.662;23.350;2023-01-05T09:14:38;95348.91;;;9.41;60.31
16793;BME280;8513;42.662;23.350;2023-01-05T09:17:03;95346.03;;;9.44;60.42
16793;BME280;8513;42.662;23.350;2023-01-05T09:19:29;95336.78;;;9.60;59.80
16793;BME280;8513;42.662;23.350;2023-01-05T09:21:54;95322.81;;;9.69;59.25
16793;BME280;8513;42.662;23.350;2023-01-05T09:24:20;95313.00;;;9.71;59.03
16793;BME280;8513;42.662;23.350;2023-01-05T09:26:46;95305.22;;;9.89;58.21
16793;BME280;8513;42.662;23.350;2023-01-05T09:29:12;95305.78;;;9.92;58.01
16793;BME280;8513;42.662;23.350;2023-01-05T09:31:39;95299.13;;;9.98;58.12
16793;BME280;8513;42.662;23.350;2023-01-05T09:34:05;95294.28;;;10.03;57.36
16793;BME280;8513;42.662;23.350;2023-01-05T09:36:30;95293.59;;;10.11;57.30
16793;BME280;8513;42.662;23.350;2023-01-05T09:38:56;95289.16;;;10.21;56.44
16793;BME280;8513;42.662;23.350;2023-01-05T09:41:29;95295.75;;;10.25;56.44
16793;BME280;8513;42.662;23.350;2023-01-05T09:44:27;95289.41;;;10.28;55.73
16793;BME280;8513;42.662;23.350;2023-01-05T09:47:00;95271.00;;;10.18;56.20
16793;BME280;8513;42.662;23.350;2023-01-05T09:49:27;95270.53;;;10.42;55.29
16793;BME280;8513;42.662;23.350;2023-01-05T09:51:58;95260.31;;;10.39;55.33
16793;BME280;8513;42.662;23.350;2023-01-05T09:54:27;95256.34;;;10.35;55.15
16793;BME280;8513;42.662;23.350;2023-01-05T09:56:53;95255.88;;;10.40;54.54
16793;BME280;8513;42.662;23.350;2023-01-05T09:59:24;95253.19;;;10.59;54.60
16793;BME280;8513;42.662;23.350;2023-01-05T10:01:51;95239.66;;;10.72;54.71
16793;BME280;8513;42.662;23.350;2023-01-05T10:04:22;95232.16;;;10.77;54.25
16793;BME280;8513;42.662;23.350;2023-01-05T10:06:56;95230.31;;;10.87;53.80
16793;BME280;8513;42.662;23.350;2023-01-05T10:09:28;95232.44;;;10.84;53.54
16793;BME280;8513;42.662;23.350;2023-01-05T10:12:30;95231.00;;;10.89;53.55
16793;BME280;8513;42.662;23.350;2023-01-05T10:15:20;95229.13;;;10.99;53.19
16793;BME280;8513;42.662;23.350;2023-01-05T10:17:46;95228.88;;;10.75;54.08
16793;BME280;8513;42.662;23.350;2023-01-05T10:20:17;95219.88;;;10.95;53.33
16793;BME280;8513;42.662;23.350;2023-01-05T10:23:14;95221.75;;;11.03;53.33
16793;BME280;8513;42.662;23.350;2023-01-05T10:25:54;95223.31;;;10.96;53.22
16793;BME280;8513;42.662;23.350;2023-01-05T10:31:08;95205.47;;;10.99;53.35
16793;BME280;8513;42.662;23.350;2023-01-05T10:33:52;95203.13;;;10.96;53.44
16793;BME280;8513;42.662;23.350;2023-01-05T10:39:14;95200.41;;;11.24;52.82
16793;BME280;8513;42.662;23.350;2023-01-05T10:46:55;95183.69;;;11.51;52.10
16793;BME280;8513;42.662;23.350;2023-01-05T10:49:25;95179.41;;;11.50;52.07
16793;BME280;8513;42.662;23.350;2023-01-05T10:51:52;95169.50;;;11.70;51.38
16793;BME280;8513;42.662;23.350;2023-01-05T10:54:35;95169.47;;;11.88;51.10
16793;BME280;8513;42.662;23.350;2023-01-05T11:02:30;95156.31;;;12.22;49.94
16793;BME280;8513;42.662;23.350;2023-01-05T11:05:04;95156.50;;;12.37;49.29
16793;BME280;8513;42.662;23.350;2023-01-05T11:07:31;95151.78;;;12.49;48.79
16793;BME280;8513;42.662;23.350;2023-01-05T11:09:57;95151.34;;;12.62;48.57
16793;BME280;8513;42.662;23.350;2023-01-05T11:12:24;95154.09;;;12.44;48.69
16793;BME280;8513;42.662;23.350;2023-01-05T11:14:52;95149.31;;;12.47;48.82
16793;BME280;8513;42.662;23.350;2023-01-05T11:17:21;95135.53;;;12.62;48.51
16793;BME280;8513;42.662;23.350;2023-01-05T11:19:53;95141.44;;;12.72;48.40
16793;BME280;8513;42.662;23.350;2023-01-05T11:22:38;95147.88;;;12.77;47.68
16793;BME280;8513;42.662;23.350;2023-01-05T11:28:12;95134.09;;;13.08;47.29
16793;BME280;8513;42.662;23.350;2023-01-05T11:30:59;95136.59;;;13.34;46.58
16793;BME280;8513;42.662;23.350;2023-01-05T11:33:28;95135.75;;;13.34;46.28
16793;BME280;8513;42.662;23.350;2023-01-05T11:35:57;95128.16;;;13.47;46.15
16793;BME280;8513;42.662;23.350;2023-01-05T11:38:26;95112.47;;;13.62;45.35
16793;BME280;8513;42.662;23.350;2023-01-05T11:40:53;95119.56;;;13.70;45.29
16793;BME280;8513;42.662;23.350;2023-01-05T11:43:22;95123.50;;;13.65;45.32
16793;BME280;8513;42.662;23.350;2023-01-05T11:45:54;95120.84;;;13.74;44.87
16793;BME280;8513;42.662;23.350;2023-01-05T11:48:24;95116.38;;;13.82;44.32
16793;BME280;8513;42.662;23.350;2023-01-05T11:50:54;95115.56;;;13.90;44.23
16793;BME280;8513;42.662;23.350;2023-01-05T11:53:40;95113.91;;;13.81;44.44
16793;BME280;8513;42.662;23.350;2023-01-05T11:56:23;95100.50;;;13.90;44.46
16793;BME280;8513;42.662;23.350;2023-01-05T11:58:53;95108.50;;;13.09;45.59
16793;BME280;8513;42.662;23.350;2023-01-05T12:01:44;95104.72;;;12.95;46.38
16793;BME280;8513;42.662;23.350;2023-01-05T12:06:46;95095.00;;;14.00;44.09
16793;BME280;8513;42.662;23.350;2023-01-05T12:11:56;95093.81;;;13.39;45.10
16793;BME280;8513;42.662;23.350;2023-01-05T12:17:16;95094.34;;;14.06;43.49
16793;BME280;8513;42.662;23.350;2023-01-05T12:22:41;95089.97;;;14.22;42.73
16793;BME280;8513;42.662;23.350;2023-01-05T12:25:19;95075.28;;;14.50;42.45
16793;BME280;8513;42.662;23.350;2023-01-05T12:49:42;95025.94;;;14.66;41.45
16793;BME280;8513;42.662;23.350;2023-01-05T12:52:22;95029.44;;;14.58;41.60
16793;BME280;8513;42.662;23.350;2023-01-05T12:54:54;95035.25;;;14.53;41.39
16793;BME280;8513;42.662;23.350;2023-01-05T12:57:40;95035.69;;;14.34;42.19
16793;BME280;8513;42.662;23.350;2023-01-05T13:00:10;95038.34;;;14.34;42.46
16793;BME280;8513;42.662;23.350;2023-01-05T13:03:01;95037.41;;;14.19;42.68
16793;BME280;8513;42.662;23.350;2023-01-05T13:05:38;95035.81;;;14.09;42.72
16793;BME280;8513;42.662;23.350;2023-01-05T13:08:10;95037.59;;;14.17;43.10
16793;BME280;8513;42.662;23.350;2023-01-05T13:10:56;95040.75;;;14.44;42.61
16793;BME280;8513;42.662;23.350;2023-01-05T13:13:30;95045.91;;;14.68;42.02
16793;BME280;8513;42.662;23.350;2023-01-05T13:16:12;95041.69;;;14.82;41.47
16793;BME280;8513;42.662;23.350;2023-01-05T13:18:46;95047.56;;;14.92;41.38
16793;BME280;8513;42.662;23.350;2023-01-05T13:21:14;95042.72;;;14.96;41.05
16793;BME280;8513;42.662;23.350;2023-01-05T13:23:44;95048.00;;;15.19;40.66
16793;BME280;8513;42.662;23.350;2023-01-05T13:26:16;95047.72;;;15.81;39.27
16793;BME280;8513;42.662;23.350;2023-01-05T13:28:45;95046.41;;;15.48;39.97
16793;BME280;8513;42.662;23.350;2023-01-05T13:45:04;95028.06;;;14.70;41.76
16793;BME280;8513;42.662;23.350;2023-01-05T13:47:52;95018.94;;;14.42;42.06
16793;BME280;8513;42.662;23.350;2023-01-05T13:53:15;95004.28;;;14.62;41.98
16793;BME280;8513;42.662;23.350;2023-01-05T13:55:46;94997.88;;;14.48;42.09
16793;BME280;8513;42.662;23.350;2023-01-05T14:00:59;94999.00;;;14.00;42.84
16793;BME280;8513;42.662;23.350;2023-01-05T14:03:40;94999.16;;;14.29;42.62
16793;BME280;8513;42.662;23.350;2023-01-05T14:06:17;95000.75;;;14.16;43.43
16793;BME280;8513;42.662;23.350;2023-01-05T14:08:50;94996.31;;;14.08;43.13
16793;BME280;8513;42.662;23.350;2023-01-05T14:11:23;94999.56;;;14.18;43.24
16793;BME280;8513;42.662;23.350;2023-01-05T14:13:52;94997.94;;;14.17;43.42
16793;BME280;8513;42.662;23.350;2023-01-05T14:19:25;95003.69;;;14.21;42.91
16793;BME280;8513;42.662;23.350;2023-01-05T14:32:37;95003.16;;;13.94;43.52
16793;BME280;8513;42.662;23.350;2023-01-05T14:35:22;94999.94;;;13.76;43.86
16793;BME280;8513;42.662;23.350;2023-01-05T14:37:57;95002.63;;;13.67;44.27
16793;BME280;8513;42.662;23.350;2023-01-05T14:40:29;95011.72;;;13.65;44.25
16793;BME280;8513;42.662;23.350;2023-01-05T14:42:56;95012.88;;;13.62;44.33
16793;BME280;8513;42.662;23.350;2023-01-05T14:45:33;95013.41;;;13.50;44.81
16793;BME280;8513;42.662;23.350;2023-01-05T14:48:03;95013.31;;;13.35;44.87
16793;BME280;8513;42.662;23.350;2023-01-05T14:53:12;95028.97;;;13.20;45.63
16793;BME280;8513;42.662;23.350;2023-01-05T15:01:22;95022.25;;;12.85;46.47
16793;BME280;8513;42.662;23.350;2023-01-05T15:04:06;95026.84;;;12.83;46.77
16793;BME280;8513;42.662;23.350;2023-01-05T15:09:46;95030.63;;;12.72;47.11
16793;BME280;8513;42.662;23.350;2023-01-05T15:12:18;95034.94;;;12.65;47.05
16793;BME280;8513;42.662;23.350;2023-01-05T15:26:25;95029.13;;;12.28;48.18
16793;BME280;8513;42.662;23.350;2023-01-05T15:31:44;95035.66;;;12.08;48.63
16793;BME280;8513;42.662;23.350;2023-01-05T15:34:28;95038.59;;;11.97;49.13
16793;BME280;8513;42.662;23.350;2023-01-05T15:37:14;95039.41;;;11.97;49.29
16793;BME280;8513;42.662;23.350;2023-01-05T15:40:02;95043.16;;;11.52;50.04